Time;durP1;ratioP1;P1;durP2;ratioP2;P2;SDS_P1;SDS_P2;PMS_P1;PMS_P2;Temp;Humidity;BMP_temperature;BMP_pressure;BME280_temperature;BME280_humidity;BME280_pressure;Samples;Min_cycle;Max_cycle;Signal;HPM_P1;HPM_P2
2023/07/17 00:00:16;;;;;;;6.43;2.10;;;;;;;;;;5047622;28;20463;-83
2023/07/17 00:02:42;;;;;;;5.83;1.93;;;;;;;;;;5055258;28;20435;-84
2023/07/17 00:05:10;;;;;;;7.57;3.47;;;;;;;;;;5055482;28;20491;-84
2023/07/17 00:07:36;;;;;;;5.77;1.73;;;;;;;;;;5056311;28;20411;-87
2023/07/17 00:10:03;;;;;;;5.13;2.17;;;;;;;;;;5056326;28;20553;-82
2023/07/17 00:12:29;;;;;;;3.90;2.50;;;;;;;;;;5056249;28;20418;-82
2023/07/17 00:14:55;;;;;;;4.27;1.93;;;;;;;;;;5055743;28;20601;-83
2023/07/17 00:17:21;;;;;;;3.70;2.33;;;;;;;;;;5056134;28;20431;-83
2023/07/17 00:19:54;;;;;;;4.07;2.33;;;;;;;;;;5053346;28;20407;-83
2023/07/17 00:22:20;;;;;;;4.07;1.70;;;;;;;;;;5056074;28;20259;-83
2023/07/17 00:24:46;;;;;;;5.40;2.50;;;;;;;;;;5054767;28;20413;-82
2023/07/17 00:27:12;;;;;;;6.00;3.17;;;;;;;;;;5054794;28;20438;-82
2023/07/17 00:29:40;;;;;;;4.50;1.73;;;;;;;;;;5054745;28;20418;-82
2023/07/17 00:32:06;;;;;;;4.90;1.77;;;;;;;;;;5055845;28;20410;-84
2023/07/17 00:34:32;;;;;;;5.97;2.47;;;;;;;;;;5055612;28;20896;-82
2023/07/17 00:36:58;;;;;;;4.03;1.73;;;;;;;;;;5055653;28;20475;-82
2023/07/17 00:39:24;;;;;;;3.77;1.93;;;;;;;;;;5055738;28;20964;-83
2023/07/17 00:41:51;;;;;;;4.07;2.53;;;;;;;;;;5055776;28;20505;-83
2023/07/17 00:44:17;;;;;;;3.80;2.60;;;;;;;;;;5054868;28;20403;-82
2023/07/17 00:46:44;;;;;;;4.40;2.40;;;;;;;;;;5055443;28;20419;-88
2023/07/17 00:49:11;;;;;;;3.07;1.90;;;;;;;;;;5055344;28;20403;-83
2023/07/17 00:51:37;;;;;;;4.43;2.73;;;;;;;;;;5055538;28;20416;-82
2023/07/17 00:54:03;;;;;;;3.80;1.97;;;;;;;;;;5055582;28;20421;-82
2023/07/17 00:56:29;;;;;;;3.10;2.53;;;;;;;;;;5055411;28;20475;-83
2023/07/17 00:58:56;;;;;;;2.73;2.20;;;;;;;;;;5055316;28;20440;-82
2023/07/17 01:01:22;;;;;;;4.73;1.97;;;;;;;;;;5055178;28;20498;-83
2023/07/17 01:03:51;;;;;;;4.27;2.13;;;;;;;;;;5054874;28;20415;-82
2023/07/17 01:06:16;;;;;;;4.10;2.63;;;;;;;;;;5055273;28;20418;-81
2023/07/17 01:08:42;;;;;;;2.43;1.67;;;;;;;;;;5055215;28;20408;-83
2023/07/17 01:11:09;;;;;;;4.77;1.60;;;;;;;;;;5054003;28;20634;-83
2023/07/17 01:13:45;;;;;;;5.33;2.30;;;;;;;;;;5055125;28;20744;-83
2023/07/17 01:16:11;;;;;;;3.83;2.50;;;;;;;;;;5055009;28;20477;-82
2023/07/17 01:18:37;;;;;;;4.03;2.50;;;;;;;;;;5054697;28;20414;-83
2023/07/17 01:21:03;;;;;;;3.73;2.03;;;;;;;;;;5055489;28;20177;-82
2023/07/17 01:23:29;;;;;;;2.77;1.50;;;;;;;;;;5057552;28;20401;-83
2023/07/17 01:25:55;;;;;;;5.70;2.70;;;;;;;;;;5054882;28;20554;-82
2023/07/17 01:28:21;;;;;;;4.33;1.60;;;;;;;;;;5053614;28;20523;-82
2023/07/17 01:30:47;;;;;;;4.00;2.70;;;;;;;;;;5054940;28;20712;-82
2023/07/17 01:33:13;;;;;;;5.00;2.67;;;;;;;;;;5054451;28;20191;-83
2023/07/17 01:35:39;;;;;;;4.40;2.97;;;;;;;;;;5054709;28;20239;-84
2023/07/17 01:38:06;;;;;;;3.60;2.10;;;;;;;;;;5054673;28;20171;-83
2023/07/17 01:40:32;;;;;;;3.20;1.80;;;;;;;;;;5054521;28;20922;-82
2023/07/17 01:42:58;;;;;;;4.57;2.20;;;;;;;;;;5054246;28;20419;-82
2023/07/17 01:45:24;;;;;;;4.53;2.97;;;;;;;;;;5054492;28;20189;-82
2023/07/17 01:47:50;;;;;;;2.63;1.80;;;;;;;;;;5054419;28;20642;-81
2023/07/17 01:50:16;;;;;;;4.03;2.27;;;;;;;;;;5052734;28;20415;-81
2023/07/17 01:52:42;;;;;;;4.50;1.60;;;;;;;;;;5034436;28;20447;-82
2023/07/17 01:55:08;;;;;;;3.97;2.13;;;;;;;;;;5034353;28;20481;-84
2023/07/17 01:57:34;;;;;;;7.73;3.20;;;;;;;;;;5034018;28;20661;-82
2023/07/17 02:00:00;;;;;;;5.67;2.57;;;;;;;;;;5034143;28;20446;-83
2023/07/17 02:02:26;;;;;;;4.73;2.80;;;;;;;;;;5034467;28;20387;-87
2023/07/17 02:04:52;;;;;;;7.27;3.40;;;;;;;;;;5034042;28;20414;-82
2023/07/17 02:07:18;;;;;;;3.27;2.23;;;;;;;;;;5032925;28;20439;-82
2023/07/17 02:09:44;;;;;;;3.57;2.17;;;;;;;;;;5034080;28;20418;-82
2023/07/17 02:12:10;;;;;;;4.40;2.63;;;;;;;;;;5034065;28;20185;-82
2023/07/17 02:14:36;;;;;;;6.03;2.43;;;;;;;;;;5034066;28;20797;-82
2023/07/17 02:17:02;;;;;;;4.53;1.93;;;;;;;;;;5033914;28;20491;-82
2023/07/17 02:19:28;;;;;;;4.70;2.50;;;;;;;;;;5033548;28;20179;-83
2023/07/17 02:21:54;;;;;;;4.33;1.87;;;;;;;;;;5033800;28;20176;-82
2023/07/17 02:24:20;;;;;;;4.50;2.73;;;;;;;;;;5033871;28;20770;-82
2023/07/17 02:26:45;;;;;;;4.40;3.13;;;;;;;;;;5032515;28;20177;-82
2023/07/17 02:29:11;;;;;;;3.53;2.53;;;;;;;;;;5033787;28;20178;-82
2023/07/17 02:31:37;;;;;;;3.30;2.50;;;;;;;;;;5033616;28;20794;-83
2023/07/17 02:34:03;;;;;;;4.93;2.40;;;;;;;;;;5033386;28;20228;-83
2023/07/17 02:36:29;;;;;;;5.50;2.40;;;;;;;;;;5033572;28;20207;-83
2023/07/17 02:38:55;;;;;;;3.93;1.90;;;;;;;;;;5033579;28;20524;-82
2023/07/17 02:41:21;;;;;;;3.67;2.30;;;;;;;;;;5033463;28;20179;-83
2023/07/17 02:43:47;;;;;;;4.00;2.47;;;;;;;;;;5033640;28;20265;-83
2023/07/17 02:46:13;;;;;;;4.87;2.50;;;;;;;;;;5033510;28;20415;-83
2023/07/17 02:48:39;;;;;;;3.80;2.07;;;;;;;;;;5033105;28;20807;-84
2023/07/17 02:51:05;;;;;;;7.00;2.23;;;;;;;;;;5033462;28;20177;-83
2023/07/17 02:53:31;;;;;;;4.07;2.40;;;;;;;;;;5033288;28;20404;-86
2023/07/17 02:55:56;;;;;;;4.03;1.50;;;;;;;;;;5033188;28;20573;-83
2023/07/17 02:58:22;;;;;;;4.97;2.40;;;;;;;;;;5033433;28;20420;-84
2023/07/17 03:00:48;;;;;;;3.57;1.60;;;;;;;;;;5033127;28;20239;-84
2023/07/17 03:03:14;;;;;;;4.13;2.37;;;;;;;;;;5032926;28;20200;-84
2023/07/17 03:05:40;;;;;;;5.27;2.67;;;;;;;;;;5033192;28;20408;-83
2023/07/17 03:08:06;;;;;;;3.57;2.07;;;;;;;;;;5032669;28;20981;-84
2023/07/17 03:10:32;;;;;;;3.67;1.57;;;;;;;;;;5033148;28;20408;-84
2023/07/17 03:12:58;;;;;;;3.20;1.53;;;;;;;;;;5033237;28;20415;-84
2023/07/17 03:15:24;;;;;;;5.37;2.27;;;;;;;;;;5032898;28;20523;-82
2023/07/17 03:17:50;;;;;;;2.83;1.73;;;;;;;;;;5032696;28;20424;-83
2023/07/17 03:20:17;;;;;;;3.07;1.77;;;;;;;;;;5031949;28;20750;-84
2023/07/17 03:22:43;;;;;;;3.50;1.70;;;;;;;;;;5033134;28;20423;-83
2023/07/17 03:25:09;;;;;;;5.20;1.83;;;;;;;;;;5032967;28;20410;-83
2023/07/17 03:27:35;;;;;;;3.87;1.80;;;;;;;;;;5032979;28;20420;-83
2023/07/17 03:30:01;;;;;;;4.17;1.63;;;;;;;;;;5032988;28;20808;-83
2023/07/17 03:32:33;;;;;;;4.70;2.70;;;;;;;;;;5032939;28;20404;-83
2023/07/17 03:34:59;;;;;;;5.17;2.67;;;;;;;;;;5032918;28;20414;-84
2023/07/17 03:37:25;;;;;;;4.87;2.67;;;;;;;;;;5032817;28;20490;-83
2023/07/17 03:39:50;;;;;;;4.63;1.97;;;;;;;;;;5032864;28;20498;-83
2023/07/17 03:42:16;;;;;;;3.60;1.80;;;;;;;;;;5031549;28;20532;-85
2023/07/17 03:44:42;;;;;;;4.63;2.30;;;;;;;;;;5031529;28;20426;-84
2023/07/17 03:47:08;;;;;;;3.73;2.13;;;;;;;;;;5032927;28;20475;-86
2023/07/17 03:49:35;;;;;;;4.70;2.40;;;;;;;;;;5031094;28;20583;-85
2023/07/17 03:52:01;;;;;;;4.63;2.10;;;;;;;;;;5032743;28;20261;-83
2023/07/17 03:54:27;;;;;;;5.73;2.40;;;;;;;;;;5032716;28;20503;-82
2023/07/17 03:56:53;;;;;;;4.13;1.70;;;;;;;;;;5032588;28;20626;-83
2023/07/17 03:59:23;;;;;;;4.13;1.83;;;;;;;;;;5032747;28;20453;-82
2023/07/17 04:01:49;;;;;;;4.90;2.70;;;;;;;;;;5032380;28;20233;-83
2023/07/17 04:04:15;;;;;;;6.07;2.47;;;;;;;;;;5032273;28;20412;-82
2023/07/17 04:06:41;;;;;;;5.50;2.50;;;;;;;;;;5032525;28;20416;-83
2023/07/17 04:09:07;;;;;;;5.60;2.43;;;;;;;;;;5032656;28;20529;-82
2023/07/17 04:11:34;;;;;;;6.50;2.30;;;;;;;;;;5032578;28;20181;-83
2023/07/17 04:14:00;;;;;;;5.77;2.23;;;;;;;;;;5032475;28;20406;-83
2023/07/17 04:16:26;;;;;;;5.83;2.17;;;;;;;;;;5032363;28;20477;-85
2023/07/17 04:18:52;;;;;;;3.87;2.03;;;;;;;;;;5032795;28;20406;-83
2023/07/17 04:21:18;;;;;;;4.03;2.00;;;;;;;;;;5036198;28;20802;-85
2023/07/17 04:23:48;;;;;;;5.97;1.30;;;;;;;;;;5047288;28;20419;-83
2023/07/17 04:26:14;;;;;;;5.23;2.53;;;;;;;;;;5056300;28;20517;-83
2023/07/17 04:28:40;;;;;;;3.83;1.80;;;;;;;;;;5056118;28;20406;-83
2023/07/17 04:31:06;;;;;;;5.07;2.20;;;;;;;;;;5056139;28;20476;-84
2023/07/17 04:33:33;;;;;;;4.70;2.20;;;;;;;;;;5055530;28;20172;-82
2023/07/17 04:35:58;;;;;;;4.70;1.87;;;;;;;;;;5054669;28;20313;-82
2023/07/17 04:38:24;;;;;;;3.73;2.10;;;;;;;;;;5056062;28;20913;-82
2023/07/17 04:40:50;;;;;;;6.33;1.80;;;;;;;;;;5055923;28;20784;-82
2023/07/17 04:43:16;;;;;;;4.50;2.40;;;;;;;;;;5055814;28;20428;-82
2023/07/17 04:45:42;;;;;;;3.40;1.90;;;;;;;;;;5055151;28;20652;-86
2023/07/17 04:48:08;;;;;;;6.67;3.17;;;;;;;;;;5055555;28;20626;-84
2023/07/17 04:50:34;;;;;;;6.17;2.40;;;;;;;;;;5055655;28;20423;-84
2023/07/17 04:53:00;;;;;;;6.13;2.20;;;;;;;;;;5053626;28;20509;-84
2023/07/17 04:55:26;;;;;;;5.37;2.10;;;;;;;;;;5055256;28;20554;-86
2023/07/17 04:57:52;;;;;;;4.43;1.33;;;;;;;;;;5055307;28;20172;-83
2023/07/17 05:00:19;;;;;;;5.33;2.20;;;;;;;;;;5053868;28;20483;-84
2023/07/17 05:02:45;;;;;;;5.30;2.80;;;;;;;;;;5053865;28;20179;-85
2023/07/17 05:05:11;;;;;;;4.73;3.00;;;;;;;;;;5055272;28;20415;-84
2023/07/17 05:07:37;;;;;;;8.40;2.60;;;;;;;;;;5055202;28;20415;-86
2023/07/17 05:10:03;;;;;;;4.40;2.30;;;;;;;;;;5055253;28;20510;-85
2023/07/17 05:12:29;;;;;;;3.07;1.90;;;;;;;;;;5055212;28;20415;-85
2023/07/17 05:14:54;;;;;;;4.77;2.37;;;;;;;;;;5053841;28;20429;-83
2023/07/17 05:17:20;;;;;;;6.13;3.30;;;;;;;;;;5054785;28;20657;-87
2023/07/17 05:19:46;;;;;;;3.90;2.47;;;;;;;;;;5055207;28;20173;-82
2023/07/17 05:22:12;;;;;;;3.53;2.10;;;;;;;;;;5055121;28;20183;-82
2023/07/17 05:24:38;;;;;;;4.37;2.70;;;;;;;;;;5053717;28;20638;-83
2023/07/17 05:27:05;;;;;;;7.03;2.60;;;;;;;;;;5054924;28;20224;-82
2023/07/17 05:29:30;;;;;;;6.87;2.80;;;;;;;;;;5054936;28;20176;-82
2023/07/17 05:31:56;;;;;;;9.43;3.17;;;;;;;;;;5054344;28;20408;-82
2023/07/17 05:34:22;;;;;;;3.90;2.30;;;;;;;;;;5054497;28;20185;-83
2023/07/17 05:36:48;;;;;;;5.80;2.20;;;;;;;;;;5054767;28;20219;-86
2023/07/17 05:39:14;;;;;;;3.97;3.20;;;;;;;;;;5054689;28;20626;-82
2023/07/17 05:41:40;;;;;;;7.00;1.77;;;;;;;;;;5053390;28;20177;-83
2023/07/17 05:44:06;;;;;;;5.20;1.70;;;;;;;;;;5054645;28;20418;-92
2023/07/17 05:46:32;;;;;;;3.60;2.27;;;;;;;;;;5054472;28;20451;-83
2023/07/17 05:48:58;;;;;;;4.97;2.53;;;;;;;;;;5054238;28;20408;-84
2023/07/17 05:51:24;;;;;;;3.00;1.30;;;;;;;;;;5054433;28;20201;-82
2023/07/17 05:53:50;;;;;;;5.17;2.23;;;;;;;;;;5054396;28;20410;-83
2023/07/17 05:56:16;;;;;;;7.43;4.47;;;;;;;;;;5054284;28;20500;-82
2023/07/17 05:58:41;;;;;;;5.47;2.40;;;;;;;;;;5054292;28;20487;-83
2023/07/17 06:01:07;;;;;;;4.87;1.90;;;;;;;;;;5054121;28;20463;-81
2023/07/17 06:03:33;;;;;;;10.93;2.90;;;;;;;;;;5053862;28;20635;-83
2023/07/17 06:05:59;;;;;;;6.73;3.47;;;;;;;;;;5054120;28;20818;-83
2023/07/17 06:08:25;;;;;;;5.73;2.50;;;;;;;;;;5054205;28;20969;-83
2023/07/17 06:10:51;;;;;;;4.10;1.93;;;;;;;;;;5052743;28;20227;-84
2023/07/17 06:13:19;;;;;;;4.90;2.20;;;;;;;;;;5054047;28;20479;-83
2023/07/17 06:15:45;;;;;;;4.50;1.73;;;;;;;;;;5053903;28;20512;-83
2023/07/17 06:18:11;;;;;;;3.73;1.90;;;;;;;;;;5053616;28;20403;-83
2023/07/17 06:20:37;;;;;;;7.63;2.50;;;;;;;;;;5053838;28;20420;-84
2023/07/17 06:23:02;;;;;;;4.50;2.00;;;;;;;;;;5053986;28;20696;-82
2023/07/17 06:25:29;;;;;;;3.73;1.80;;;;;;;;;;5053695;28;20436;-87
2023/07/17 06:27:54;;;;;;;5.40;1.87;;;;;;;;;;5054263;28;20654;-84
2023/07/17 06:30:20;;;;;;;3.13;1.90;;;;;;;;;;5061492;28;20435;-82
2023/07/17 06:32:46;;;;;;;6.07;2.50;;;;;;;;;;5053201;28;20407;-82
2023/07/17 06:35:12;;;;;;;8.33;2.10;;;;;;;;;;5053575;28;20474;-82
2023/07/17 06:37:38;;;;;;;3.60;2.00;;;;;;;;;;5053697;28;20411;-83
2023/07/17 06:40:05;;;;;;;7.13;2.00;;;;;;;;;;5052343;28;20817;-82
2023/07/17 06:42:33;;;;;;;4.33;1.93;;;;;;;;;;5052665;28;20176;-83
2023/07/17 06:44:58;;;;;;;3.73;1.90;;;;;;;;;;5053422;28;20412;-83
2023/07/17 06:47:24;;;;;;;5.17;2.10;;;;;;;;;;5053094;28;20503;-81
2023/07/17 06:49:50;;;;;;;5.27;1.53;;;;;;;;;;5053378;28;20533;-82
2023/07/17 06:52:16;;;;;;;3.13;1.20;;;;;;;;;;5053331;28;20185;-82
2023/07/17 06:54:42;;;;;;;3.50;1.70;;;;;;;;;;5053281;28;20173;-82
2023/07/17 06:57:08;;;;;;;7.70;1.80;;;;;;;;;;5051264;28;20688;-81
2023/07/17 06:59:34;;;;;;;3.30;1.70;;;;;;;;;;5053114;28;20227;-81
2023/07/17 07:02:00;;;;;;;3.67;1.23;;;;;;;;;;5052667;28;20509;-83
2023/07/17 07:04:26;;;;;;;3.70;1.67;;;;;;;;;;5053212;28;20244;-82
2023/07/17 07:06:51;;;;;;;3.30;1.27;;;;;;;;;;5053179;28;20624;-81
2023/07/17 07:09:17;;;;;;;4.97;1.70;;;;;;;;;;5053074;28;20400;-82
2023/07/17 07:11:43;;;;;;;3.97;1.13;;;;;;;;;;5052944;28;20188;-82
2023/07/17 07:14:09;;;;;;;2.67;1.27;;;;;;;;;;5052960;28;20171;-82
2023/07/17 07:16:35;;;;;;;4.37;1.47;;;;;;;;;;5052965;28;20232;-82
2023/07/17 07:19:01;;;;;;;2.73;1.13;;;;;;;;;;5052614;28;20622;-82
2023/07/17 07:21:27;;;;;;;3.63;1.73;;;;;;;;;;5052888;28;20173;-81
2023/07/17 07:23:53;;;;;;;4.40;1.40;;;;;;;;;;5052998;28;20173;-82
2023/07/17 07:26:19;;;;;;;4.50;1.50;;;;;;;;;;5052747;28;20204;-81
2023/07/17 07:28:44;;;;;;;5.53;1.80;;;;;;;;;;5052863;28;20174;-82
2023/07/17 07:31:10;;;;;;;4.33;1.50;;;;;;;;;;5052836;28;20173;-81
2023/07/17 07:33:36;;;;;;;2.57;0.93;;;;;;;;;;5052523;28;20584;-81
2023/07/17 07:36:02;;;;;;;4.33;1.80;;;;;;;;;;5052783;28;20531;-80
2023/07/17 07:38:28;;;;;;;4.30;1.60;;;;;;;;;;5051465;28;20192;-82
2023/07/17 07:40:54;;;;;;;4.73;2.13;;;;;;;;;;5052723;28;20430;-81
2023/07/17 07:43:20;;;;;;;5.20;2.17;;;;;;;;;;5052724;28;20503;-81
2023/07/17 07:45:46;;;;;;;4.30;1.53;;;;;;;;;;5052676;28;20669;-83
2023/07/17 07:48:12;;;;;;;4.17;1.73;;;;;;;;;;5052432;28;20177;-82
2023/07/17 07:50:38;;;;;;;2.17;1.00;;;;;;;;;;5052682;28;20537;-82
2023/07/17 07:53:04;;;;;;;5.33;1.90;;;;;;;;;;5052614;28;20170;-83
2023/07/17 07:55:30;;;;;;;5.57;1.80;;;;;;;;;;5055935;28;20463;-82
2023/07/17 07:57:56;;;;;;;3.80;1.60;;;;;;;;;;5056631;28;20439;-82
2023/07/17 08:00:22;;;;;;;2.90;1.33;;;;;;;;;;5056407;28;20314;-83
2023/07/17 08:02:49;;;;;;;3.40;1.73;;;;;;;;;;5056200;28;20244;-82
2023/07/17 08:05:15;;;;;;;3.80;1.40;;;;;;;;;;5056314;28;20411;-82
2023/07/17 08:07:40;;;;;;;4.93;1.50;;;;;;;;;;5056459;28;20473;-81
2023/07/17 08:10:06;;;;;;;3.23;1.60;;;;;;;;;;5056368;28;20713;-83
2023/07/17 08:12:33;;;;;;;3.27;1.57;;;;;;;;;;5056242;28;20627;-83
2023/07/17 08:14:58;;;;;;;4.13;1.17;;;;;;;;;;5056184;28;20916;-83
2023/07/17 08:17:24;;;;;;;3.63;1.47;;;;;;;;;;5055943;28;20466;-82
2023/07/17 08:19:50;;;;;;;5.30;1.50;;;;;;;;;;5056247;28;20201;-81
2023/07/17 08:22:16;;;;;;;3.70;1.50;;;;;;;;;;5056177;28;20178;-82
2023/07/17 08:24:42;;;;;;;5.40;1.63;;;;;;;;;;5056103;28;20181;-82
2023/07/17 08:27:08;;;;;;;3.37;2.00;;;;;;;;;;5056005;28;20178;-82
2023/07/17 08:29:34;;;;;;;5.10;1.27;;;;;;;;;;5056122;28;20228;-83
2023/07/17 08:32:00;;;;;;;3.83;1.17;;;;;;;;;;5055562;28;20248;-83
2023/07/17 08:34:26;;;;;;;3.53;1.20;;;;;;;;;;5055884;28;20185;-82
2023/07/17 08:36:52;;;;;;;4.97;1.43;;;;;;;;;;5055846;28;20467;-82
2023/07/17 08:39:17;;;;;;;2.93;1.47;;;;;;;;;;5055771;28;20543;-83
2023/07/17 08:41:47;;;;;;;2.77;1.10;;;;;;;;;;5055648;28;20534;-83
2023/07/17 08:44:17;;;;;;;4.43;1.80;;;;;;;;;;5044907;28;20187;-82
2023/07/17 08:46:47;;;;;;;4.00;1.20;;;;;;;;;;5035408;28;20425;-84
2023/07/17 08:49:16;;;;;;;3.27;1.00;;;;;;;;;;5034412;28;20909;-83
2023/07/17 08:51:42;;;;;;;3.30;1.40;;;;;;;;;;5035615;28;20425;-84
2023/07/17 08:54:08;;;;;;;3.23;1.47;;;;;;;;;;5035630;28;20496;-80
2023/07/17 08:56:35;;;;;;;4.87;1.37;;;;;;;;;;5035534;28;20555;-82
2023/07/17 08:59:01;;;;;;;3.67;0.73;;;;;;;;;;5035593;28;20416;-85
2023/07/17 09:01:28;;;;;;;2.47;0.80;;;;;;;;;;5035320;28;20817;-82
2023/07/17 09:03:53;;;;;;;4.33;1.40;;;;;;;;;;5035105;28;20792;-82
2023/07/17 09:06:24;;;;;;;2.80;1.50;;;;;;;;;;5033141;28;20433;-82
2023/07/17 09:08:49;;;;;;;3.40;1.10;;;;;;;;;;5035374;28;20194;-83
2023/07/17 09:11:15;;;;;;;1.70;0.50;;;;;;;;;;5035399;28;20782;-82
2023/07/17 09:13:42;;;;;;;4.03;1.20;;;;;;;;;;5035293;28;20650;-83
2023/07/17 09:16:14;;;;;;;2.93;0.97;;;;;;;;;;5035105;28;20460;-81
2023/07/17 09:18:40;;;;;;;1.73;0.50;;;;;;;;;;5034829;28;20413;-83
2023/07/17 09:21:06;;;;;;;1.43;0.60;;;;;;;;;;5035184;28;20404;-83
2023/07/17 09:23:43;;;;;;;3.03;0.90;;;;;;;;;;5035111;28;20443;-85
2023/07/17 09:26:09;;;;;;;4.10;1.10;;;;;;;;;;5035015;28;20200;-82
2023/07/17 09:28:38;;;;;;;3.30;0.90;;;;;;;;;;5033738;28;20499;-83
2023/07/17 09:31:04;;;;;;;2.47;1.10;;;;;;;;;;5034942;28;20885;-83
2023/07/17 09:33:30;;;;;;;2.00;0.73;;;;;;;;;;5034557;28;20424;-83
2023/07/17 09:35:57;;;;;;;3.60;1.00;;;;;;;;;;5034798;28;20210;-83
2023/07/17 09:38:23;;;;;;;1.27;0.70;;;;;;;;;;5034785;28;20474;-83
2023/07/17 09:40:49;;;;;;;1.63;0.67;;;;;;;;;;5034655;28;20512;-82
2023/07/17 09:43:15;;;;;;;1.40;1.10;;;;;;;;;;5034739;28;20496;-83
2023/07/17 09:45:41;;;;;;;2.17;0.77;;;;;;;;;;5034682;28;20174;-82
2023/07/17 09:48:07;;;;;;;2.80;0.83;;;;;;;;;;5034315;28;20198;-84
2023/07/17 09:50:33;;;;;;;2.20;1.00;;;;;;;;;;5033288;28;20425;-84
2023/07/17 09:53:00;;;;;;;2.50;1.03;;;;;;;;;;5034876;28;20215;-81
2023/07/17 09:55:26;;;;;;;2.10;1.10;;;;;;;;;;5034454;28;20214;-83
2023/07/17 09:57:53;;;;;;;1.30;0.70;;;;;;;;;;5034475;28;20538;-81
2023/07/17 10:00:21;;;;;;;2.47;1.30;;;;;;;;;;5034122;28;21030;-82
2023/07/17 10:02:53;;;;;;;1.77;0.90;;;;;;;;;;5033962;28;20508;-81
2023/07/17 10:05:20;;;;;;;3.07;1.10;;;;;;;;;;5033096;28;20413;-83
2023/07/17 10:07:48;;;;;;;3.30;0.70;;;;;;;;;;5033043;28;20463;-86
2023/07/17 10:10:14;;;;;;;1.80;1.10;;;;;;;;;;5034144;28;20532;-80
2023/07/17 10:12:41;;;;;;;2.70;1.33;;;;;;;;;;5033533;28;20885;-82
2023/07/17 10:15:07;;;;;;;1.77;0.80;;;;;;;;;;5032761;28;20699;-81
2023/07/17 10:17:34;;;;;;;1.60;0.90;;;;;;;;;;5033542;28;20936;-81
2023/07/17 10:20:02;;;;;;;2.30;0.80;;;;;;;;;;5034062;28;20440;-81
2023/07/17 10:22:33;;;;;;;3.67;0.90;;;;;;;;;;5033878;28;20905;-81
2023/07/17 10:25:00;;;;;;;2.90;1.33;;;;;;;;;;5033941;28;20531;-82
2023/07/17 10:27:39;;;;;;;2.73;0.70;;;;;;;;;;5032590;28;20999;-82
2023/07/17 10:30:22;;;;;;;2.10;1.20;;;;;;;;;;5033876;28;20434;-83
2023/07/17 10:32:50;;;;;;;4.33;0.90;;;;;;;;;;5033388;28;20776;-83
2023/07/17 10:35:19;;;;;;;1.80;0.73;;;;;;;;;;5033601;28;20415;-81
2023/07/17 10:37:45;;;;;;;2.87;1.07;;;;;;;;;;5033667;28;20413;-81
2023/07/17 10:40:27;;;;;;;2.40;1.17;;;;;;;;;;5033643;28;20893;-82
2023/07/17 10:42:55;;;;;;;1.93;0.70;;;;;;;;;;5033665;28;20257;-82
2023/07/17 10:45:21;;;;;;;2.70;1.10;;;;;;;;;;5033577;28;20403;-81
2023/07/17 10:47:50;;;;;;;1.90;1.03;;;;;;;;;;5033011;28;20540;-82
2023/07/17 10:50:18;;;;;;;2.53;1.23;;;;;;;;;;5032189;28;20466;-83
2023/07/17 10:52:44;;;;;;;1.80;0.90;;;;;;;;;;5033348;28;20409;-82
2023/07/17 10:55:10;;;;;;;2.13;0.90;;;;;;;;;;5033342;28;20500;-82
2023/07/17 10:57:38;;;;;;;2.13;1.00;;;;;;;;;;5033363;28;20261;-83
2023/07/17 11:00:04;;;;;;;2.40;1.20;;;;;;;;;;5033082;28;20185;-82
2023/07/17 11:02:30;;;;;;;2.87;0.97;;;;;;;;;;5032991;28;20417;-82
2023/07/17 11:04:58;;;;;;;2.87;1.40;;;;;;;;;;5031891;28;20917;-83
2023/07/17 11:07:24;;;;;;;2.90;1.07;;;;;;;;;;5033206;28;20428;-83
2023/07/17 11:09:50;;;;;;;2.00;0.80;;;;;;;;;;5033101;28;20409;-83
2023/07/17 11:12:17;;;;;;;3.37;1.53;;;;;;;;;;5031753;28;20743;-81
2023/07/17 11:14:43;;;;;;;3.00;1.97;;;;;;;;;;5032959;28;20179;-82
2023/07/17 11:17:12;;;;;;;3.40;1.73;;;;;;;;;;5032576;28;20491;-82
2023/07/17 11:19:38;;;;;;;4.50;1.20;;;;;;;;;;5033016;28;20174;-83
2023/07/17 11:22:04;;;;;;;3.20;1.50;;;;;;;;;;5032969;28;20428;-81
2023/07/17 11:24:30;;;;;;;4.47;1.47;;;;;;;;;;5032924;28;20228;-82
2023/07/17 11:26:58;;;;;;;3.50;1.80;;;;;;;;;;5032936;28;20417;-82
2023/07/17 11:29:24;;;;;;;3.97;1.70;;;;;;;;;;5032327;28;20265;-83
2023/07/17 11:31:56;;;;;;;2.50;1.50;;;;;;;;;;5032591;28;20416;-81
2023/07/17 11:34:23;;;;;;;4.77;1.60;;;;;;;;;;5032746;28;20890;-81
2023/07/17 11:36:49;;;;;;;2.70;1.50;;;;;;;;;;5032673;28;20464;-82
2023/07/17 11:39:16;;;;;;;3.13;1.43;;;;;;;;;;5032597;28;20905;-83
2023/07/17 11:41:42;;;;;;;3.93;1.60;;;;;;;;;;5032754;28;20442;-82
2023/07/17 11:44:08;;;;;;;2.90;1.17;;;;;;;;;;5037667;28;20489;-82
2023/07/17 11:46:34;;;;;;;3.03;1.47;;;;;;;;;;5043009;28;20571;-81
2023/07/17 11:49:00;;;;;;;2.67;1.30;;;;;;;;;;5034868;28;20519;-81
2023/07/17 11:51:26;;;;;;;4.93;1.80;;;;;;;;;;5051393;28;20192;-81
2023/07/17 11:53:54;;;;;;;5.47;1.50;;;;;;;;;;5051401;28;20496;-81
2023/07/17 11:56:20;;;;;;;3.00;1.70;;;;;;;;;;5051732;28;20831;-80
2023/07/17 11:58:51;;;;;;;4.13;1.53;;;;;;;;;;5052096;28;20415;-81
2023/07/17 12:01:17;;;;;;;3.77;1.50;;;;;;;;;;5051603;28;20571;-81
2023/07/17 12:03:43;;;;;;;5.50;1.83;;;;;;;;;;5052230;28;20470;-81
2023/07/17 12:06:08;;;;;;;5.10;1.70;;;;;;;;;;5051525;28;20234;-80
2023/07/17 12:08:37;;;;;;;3.07;1.63;;;;;;;;;;5050822;28;20430;-82
2023/07/17 12:11:02;;;;;;;4.07;1.60;;;;;;;;;;5052113;28;20673;-81
2023/07/17 12:13:28;;;;;;;3.60;1.30;;;;;;;;;;5052072;28;20412;-81
2023/07/17 12:15:54;;;;;;;4.63;1.73;;;;;;;;;;5051966;28;20205;-80
2023/07/17 12:18:20;;;;;;;5.17;2.00;;;;;;;;;;5051728;28;20189;-81
2023/07/17 12:20:46;;;;;;;2.00;1.13;;;;;;;;;;5051966;28;20629;-80
2023/07/17 12:23:13;;;;;;;5.10;1.70;;;;;;;;;;5052062;28;20170;-80
2023/07/17 12:25:42;;;;;;;3.87;1.30;;;;;;;;;;5051918;28;20435;-79
2023/07/17 12:28:08;;;;;;;3.13;1.10;;;;;;;;;;5051981;28;20408;-79
2023/07/17 12:30:34;;;;;;;3.90;1.47;;;;;;;;;;5052067;28;20412;-80
2023/07/17 12:33:00;;;;;;;2.97;0.93;;;;;;;;;;5051480;28;20423;-80
2023/07/17 12:35:26;;;;;;;4.70;1.77;;;;;;;;;;5051617;28;20873;-81
2023/07/17 12:37:52;;;;;;;2.53;0.87;;;;;;;;;;5051881;28;20551;-80
2023/07/17 12:40:18;;;;;;;2.43;0.77;;;;;;;;;;5051862;28;20216;-81
2023/07/17 12:42:44;;;;;;;2.70;1.10;;;;;;;;;;5055235;28;20906;-81
2023/07/17 12:45:10;;;;;;;2.57;0.43;;;;;;;;;;5055363;28;20408;-81
2023/07/17 12:47:36;;;;;;;2.57;0.50;;;;;;;;;;5054895;28;20239;-79
2023/07/17 12:50:05;;;;;;;2.13;0.80;;;;;;;;;;5055154;28;20185;-80
2023/07/17 12:52:31;;;;;;;3.20;1.23;;;;;;;;;;5055227;28;20419;-80
2023/07/17 12:54:59;;;;;;;3.07;0.60;;;;;;;;;;5055140;28;20498;-80
2023/07/17 12:57:25;;;;;;;2.30;0.67;;;;;;;;;;5055093;28;20575;-80
2023/07/17 12:59:51;;;;;;;2.20;0.60;;;;;;;;;;5055084;28;20463;-80
2023/07/17 13:02:17;;;;;;;4.90;0.80;;;;;;;;;;5054513;28;20584;-80
2023/07/17 13:04:43;;;;;;;4.53;0.83;;;;;;;;;;5054921;28;20183;-80
2023/07/17 13:07:09;;;;;;;2.20;1.07;;;;;;;;;;5054813;28;20444;-80
2023/07/17 13:09:35;;;;;;;5.53;1.50;;;;;;;;;;5054938;28;20419;-81
2023/07/17 13:12:01;;;;;;;2.90;1.03;;;;;;;;;;5054882;28;20415;-80
2023/07/17 13:14:27;;;;;;;3.17;0.93;;;;;;;;;;5054715;28;20905;-81
2023/07/17 13:16:59;;;;;;;4.20;1.47;;;;;;;;;;5054160;28;20884;-80
2023/07/17 13:19:31;;;;;;;1.73;0.67;;;;;;;;;;5054693;28;20178;-80
2023/07/17 13:21:57;;;;;;;2.43;0.90;;;;;;;;;;5054721;28;20408;-81
2023/07/17 13:24:23;;;;;;;2.73;0.60;;;;;;;;;;5054664;28;20462;-80
2023/07/17 13:26:49;;;;;;;2.60;0.70;;;;;;;;;;5053467;28;20657;-80
2023/07/17 13:29:15;;;;;;;2.10;0.80;;;;;;;;;;5054487;28;20417;-79
2023/07/17 13:31:41;;;;;;;2.30;0.60;;;;;;;;;;5053026;28;20424;-80
2023/07/17 13:34:07;;;;;;;1.93;0.33;;;;;;;;;;5054160;28;20196;-80
2023/07/17 13:36:33;;;;;;;1.47;0.43;;;;;;;;;;5053943;28;20661;-80
2023/07/17 13:38:58;;;;;;;1.07;0.50;;;;;;;;;;5054390;28;20170;-80
2023/07/17 13:41:54;;;;;;;1.03;0.40;;;;;;;;;;5054263;28;20172;-79
2023/07/17 13:44:21;;;;;;;3.17;0.57;;;;;;;;;;5036089;28;20650;-82
2023/07/17 13:46:48;;;;;;;1.43;0.50;;;;;;;;;;5052654;28;20419;-81
2023/07/17 13:49:14;;;;;;;1.13;0.40;;;;;;;;;;5050853;28;21298;-80
2023/07/17 13:51:40;;;;;;;1.00;0.30;;;;;;;;;;5033941;28;20423;-82
2023/07/17 13:54:06;;;;;;;2.63;0.60;;;;;;;;;;5034241;28;20405;-83
2023/07/17 13:56:33;;;;;;;1.40;0.40;;;;;;;;;;5034104;28;20976;-81
2023/07/17 13:59:01;;;;;;;1.70;0.43;;;;;;;;;;5034086;28;20422;-80
2023/07/17 14:01:27;;;;;;;2.07;0.60;;;;;;;;;;5033583;28;20449;-82
2023/07/17 14:03:53;;;;;;;2.00;0.90;;;;;;;;;;5034004;28;20424;-81
2023/07/17 14:06:19;;;;;;;2.90;0.40;;;;;;;;;;5034063;28;20234;-80
2023/07/17 14:08:46;;;;;;;2.30;0.40;;;;;;;;;;5033890;28;20425;-80
2023/07/17 14:11:12;;;;;;;1.87;0.90;;;;;;;;;;5033778;28;20912;-81
2023/07/17 14:13:38;;;;;;;3.77;0.90;;;;;;;;;;5033811;28;20426;-81
2023/07/17 14:16:04;;;;;;;2.37;0.40;;;;;;;;;;5032146;28;20466;-80
2023/07/17 14:18:30;;;;;;;2.00;0.20;;;;;;;;;;5033701;28;20451;-81
2023/07/17 14:20:56;;;;;;;1.07;0.30;;;;;;;;;;5033712;28;20438;-80
2023/07/17 14:23:22;;;;;;;2.10;0.67;;;;;;;;;;5032486;28;20212;-79
2023/07/17 14:25:48;;;;;;;1.80;0.37;;;;;;;;;;5033515;28;20771;-81
2023/07/17 14:28:14;;;;;;;2.53;0.60;;;;;;;;;;5032259;28;20421;-80
2023/07/17 14:30:40;;;;;;;1.60;0.40;;;;;;;;;;5033307;28;20624;-81
2023/07/17 14:33:06;;;;;;;2.47;0.87;;;;;;;;;;5033561;28;20433;-81
2023/07/17 14:35:32;;;;;;;3.60;0.87;;;;;;;;;;5032968;28;20509;-80
2023/07/17 14:37:58;;;;;;;3.20;0.50;;;;;;;;;;5032771;28;20427;-81